Abbott, PA

6:17 AM EDT on June 03, 2015 (GMT -0400)
Germania | | Change Station
CLOSE
Current Station
Personal Weather Station
Location: Galeton, PA
Elevation: 2240 ft
Nearby Weather Stations
Active Advisory: Dense Fog Advisory

Elev 2240 ft 41.66 °N, 77.67 °W | Updated 13 seconds ago

Fog
Fog
42.7 °F
Feels Like 43 °F
N
0.0
Wind Variable Wind from North
Gusts 0.0 mph

Today
High -- | Low -- °F
--% Chance of Precip.
Yesterday
High -- | Low -- °F
Precip. -- in
5:37 AM 8:40 PM
Full, 99% visible
Pressure 30.23 in
Visibility 0.2 miles
Clouds
Windchill 43 °F
Dew Point 42 °F
Humidity 99%
Rainfall 0.00 in
Snow Depth Not available.
UV Not available.
Pollen 9.10 out of 12
Air Quality Not available.
Flu Activity Sporadic
METAR KELZ 030956Z AUTO 00000KT M1/4SM FG VV001 04/03 A3021 RMK AO2 SLP236 T00390033

More Conditions Fewer Conditions

Pressure 30.23 in
Visibility 0.2 miles
Clouds
Windchill 43 °F
Dew Point 42 °F
Humidity 99%
Rainfall 0.00 in
Snow Depth Not available.
UV Not available.
Pollen 9.10 out of 12
Air Quality Not available.
Flu Activity Sporadic
METAR KELZ 030956Z AUTO 00000KT M1/4SM FG VV001 04/03 A3021 RMK AO2 SLP236 T00390033

More Conditions Fewer Conditions

10-Day Weather Forecast

×

Almanac

Astronomy

Jun. 03, 2015 Rise Set
Actual Time
Civil Twilight
Nautical Twilight
Astronomical Twilight
Moon
Length of Visible Light
Length of Day
Tomorrow will be .
, % of the Moon is Illuminated

Today's Extremes

State Highs State Lows

Community

WunderPhotos

Upload Photos

1,826,198 photos uploaded!

WunderBlogs® & News

Nearby

Air Quality

  Air Quality AQ Index Pollutant
Not available.

Snow Depth

Station Depth Elevation

Earthquake Activity

City Distance Mag. Time & Date
Minimum magnitude displayed is 2.5.

Coastal Water Temperatures

Place Temperature

Stations

Nearby Weather Stations

Station Location Temp. Windchill Dew Point Humidity Wind Precip. Elev Updated Type
                   
Dense Fog Advisory
Statement as of 5:46 AM EDT on June 03, 2015

... Dense fog advisory in effect until 10 am EDT this morning...

The National Weather Service in State College has issued a dense
fog advisory... which is in effect until 10 am EDT this morning.

* Visibilities... one quarter of a mile or less.

* Timing... through 10 am today.

* Impacts... very poor and hazardous travel conditions from
significant reductions in visibility. Increased travel times.

Precautionary/preparedness actions...

A dense fog advisory is issued when widespread dense fog will
substantially reduce visibilities... resulting in hazardous
driving conditions over most of the advisory area. Motorists are
advised to slow down... use low beam headlights or fog lights...
and keep a safe distance from the vehicle in front of you.
Consider allowing extra time to reach your destination.



Lambert/steinbugl